createdAt,value
2023-05-16T00:01:40.041Z,67.17
2023-05-16T00:04:07.603Z,60.47
2023-05-16T00:06:36.020Z,61.71
2023-05-16T00:09:03.201Z,57.07
2023-05-16T00:11:30.950Z,56.95
2023-05-16T00:13:58.907Z,62.22
2023-05-16T00:16:26.121Z,65.79
2023-05-16T00:18:53.690Z,66.01
2023-05-16T00:21:23.568Z,65.79
2023-05-16T00:23:52.007Z,62.83
2023-05-16T00:26:19.514Z,64.52
2023-05-16T00:28:46.853Z,67.54
2023-05-16T00:31:14.175Z,70.06
2023-05-16T00:33:41.640Z,68.92
2023-05-16T00:36:08.812Z,69.40
2023-05-16T00:38:35.983Z,64.35
2023-05-16T00:41:04.363Z,69.69
2023-05-16T00:43:31.560Z,66.91
2023-05-16T00:45:58.898Z,67.25
2023-05-16T00:48:26.414Z,72.14
2023-05-16T00:50:54.049Z,73.93
2023-05-16T00:53:23.327Z,73.13
2023-05-16T00:55:51.562Z,73.22
2023-05-16T00:58:18.724Z,70.19
2023-05-16T01:00:48.765Z,72.14
2023-05-16T01:03:16.526Z,70.49
2023-05-16T01:05:43.949Z,68.91
2023-05-16T01:08:12.710Z,71.77
2023-05-16T01:10:44.345Z,76.08
2023-05-16T01:13:34.525Z,72.44
2023-05-16T01:16:21.269Z,72.15
2023-05-16T01:19:10.465Z,63.91
2023-05-16T01:21:42.618Z,60.48
2023-05-16T01:24:14.058Z,61.78
2023-05-16T01:26:41.539Z,65.30
2023-05-16T01:29:08.693Z,65.96
2023-05-16T01:31:35.977Z,67.84
2023-05-16T01:34:03.517Z,72.03
2023-05-16T01:36:40.107Z,74.22
2023-05-16T01:39:09.648Z,76.61
2023-05-16T01:41:42.170Z,66.15
2023-05-16T01:44:11.852Z,64.10
2023-05-16T01:46:39.197Z,61.48
2023-05-16T01:49:13.223Z,58.45
2023-05-16T01:51:40.763Z,59.01
2023-05-16T01:54:09.757Z,56.66
2023-05-16T01:56:37.084Z,57.13
2023-05-16T01:59:05.316Z,54.41
2023-05-16T02:01:32.828Z,53.13
2023-05-16T02:04:00.453Z,53.98
2023-05-16T02:06:27.654Z,53.47
2023-05-16T02:08:55.786Z,54.46
2023-05-16T02:11:23.292Z,64.35
2023-05-16T02:13:50.481Z,67.39
2023-05-16T02:16:17.932Z,71.89
2023-05-16T02:18:45.952Z,71.95
2023-05-16T02:21:13.222Z,75.92
2023-05-16T02:23:40.724Z,69.50
2023-05-16T02:26:08.127Z,63.89
2023-05-16T02:28:35.322Z,61.37
2023-05-16T02:31:04.461Z,57.06
2023-05-16T02:33:31.609Z,58.07
2023-05-16T02:35:58.807Z,62.05
2023-05-16T02:38:26.632Z,65.98
2023-05-16T02:40:56.059Z,62.96
2023-05-16T02:43:23.307Z,68.26
2023-05-16T02:45:50.746Z,69.51
2023-05-16T02:48:17.903Z,73.04
2023-05-16T02:50:45.056Z,74.70
2023-05-16T02:53:12.543Z,78.12
2023-05-16T02:55:39.850Z,76.22
2023-05-16T02:58:07.094Z,80.93
2023-05-16T03:00:34.501Z,75.35
2023-05-16T03:03:02.331Z,68.99
2023-05-16T03:05:31.071Z,65.99
2023-05-16T03:07:58.748Z,62.66
2023-05-16T03:10:26.432Z,62.39
2023-05-16T03:12:54.799Z,62.25
2023-05-16T03:15:22.448Z,63.17
2023-05-16T03:17:49.726Z,64.66
2023-05-16T03:20:16.941Z,67.47
2023-05-16T03:22:45.224Z,69.61
2023-05-16T03:25:12.474Z,71.11
2023-05-16T03:27:41.440Z,70.61
2023-05-16T03:30:09.332Z,64.85
2023-05-16T03:32:37.877Z,68.00
2023-05-16T03:35:05.311Z,64.26
2023-05-16T03:37:33.000Z,68.00
2023-05-16T03:40:00.180Z,62.28
2023-05-16T03:42:27.486Z,61.06
2023-05-16T03:44:54.908Z,58.39
2023-05-16T03:47:22.385Z,58.81
2023-05-16T03:49:50.134Z,58.02
2023-05-16T03:52:17.608Z,62.66
2023-05-16T03:54:44.739Z,61.57
2023-05-16T03:57:11.916Z,61.02
2023-05-16T03:59:39.340Z,67.75
2023-05-16T04:02:06.594Z,68.32
2023-05-16T04:04:34.092Z,66.44
2023-05-16T04:07:01.877Z,69.75
2023-05-16T04:09:29.011Z,63.17
2023-05-16T04:11:56.984Z,63.74
2023-05-16T04:14:24.432Z,64.60
2023-05-16T04:16:51.917Z,72.11
2023-05-16T04:19:19.641Z,76.82
2023-05-16T04:21:46.894Z,79.62
2023-05-16T04:24:14.081Z,77.61
2023-05-16T04:26:41.466Z,78.50
2023-05-16T04:29:08.898Z,80.79
2023-05-16T04:31:37.182Z,81.72
2023-05-16T04:34:04.869Z,80.54
2023-05-16T04:36:32.649Z,73.40
2023-05-16T04:38:59.820Z,70.64
2023-05-16T04:41:27.395Z,75.46
2023-05-16T04:43:54.594Z,71.02
2023-05-16T04:46:22.036Z,64.40
2023-05-16T04:48:49.646Z,66.32
2023-05-16T04:51:16.815Z,68.68
2023-05-16T04:53:44.077Z,70.03
2023-05-16T04:56:11.555Z,70.66
2023-05-16T04:58:39.614Z,76.22
2023-05-16T05:01:08.154Z,75.47
2023-05-16T05:03:36.050Z,72.94
2023-05-16T05:06:03.549Z,72.31
2023-05-16T05:08:30.871Z,72.75
2023-05-16T05:10:58.274Z,75.61
2023-05-16T05:13:25.441Z,75.62
2023-05-16T05:15:52.566Z,78.05
2023-05-16T05:18:20.449Z,78.78
2023-05-16T05:20:47.771Z,79.40
2023-05-16T05:23:14.903Z,75.62
2023-05-16T05:25:42.381Z,69.57
2023-05-16T05:28:09.580Z,67.99
2023-05-16T05:30:36.979Z,65.43
2023-05-16T05:33:04.489Z,63.12
2023-05-16T05:35:31.951Z,62.19
2023-05-16T05:37:59.224Z,60.35
2023-05-16T05:40:26.751Z,57.83
2023-05-16T05:42:53.915Z,58.39
2023-05-16T05:45:21.140Z,55.39
2023-05-16T05:47:48.591Z,51.09
2023-05-16T05:50:16.227Z,51.96
2023-05-16T05:52:43.403Z,51.62
2023-05-16T05:55:10.880Z,53.94
2023-05-16T05:57:38.179Z,54.76
2023-05-16T06:00:05.722Z,55.24
2023-05-16T06:02:35.089Z,54.31
2023-05-16T06:05:02.675Z,52.44
2023-05-16T06:07:31.173Z,53.60
2023-05-16T06:09:58.336Z,60.78
2023-05-16T06:12:25.807Z,66.66
2023-05-16T06:14:53.200Z,69.05
2023-05-16T06:17:20.495Z,67.58
2023-05-16T06:19:47.982Z,65.39
2023-05-16T06:22:15.156Z,63.11
2023-05-16T06:24:42.297Z,62.93
2023-05-16T06:27:09.998Z,60.00
2023-05-16T06:29:37.170Z,63.41
2023-05-16T06:32:04.430Z,62.72
2023-05-16T06:34:32.325Z,66.60
2023-05-16T06:37:00.010Z,64.17
2023-05-16T06:39:27.261Z,60.05
2023-05-16T06:41:56.501Z,58.88
2023-05-16T06:44:24.173Z,60.31
2023-05-16T06:46:51.521Z,62.05
2023-05-16T06:49:19.096Z,68.96
2023-05-16T06:51:46.330Z,62.58
2023-05-16T06:54:13.549Z,61.03
2023-05-16T06:56:41.084Z,62.98
2023-05-16T06:59:08.299Z,63.90
2023-05-16T07:01:35.577Z,62.10
2023-05-16T07:04:03.230Z,63.34
2023-05-16T07:06:31.158Z,63.76
2023-05-16T07:08:58.494Z,62.78
2023-05-16T07:11:26.113Z,64.97
2023-05-16T07:13:53.368Z,65.14
2023-05-16T07:16:20.671Z,63.35
2023-05-16T07:18:48.313Z,63.25
2023-05-16T07:21:15.572Z,62.45
2023-05-16T07:23:42.814Z,65.00
2023-05-16T07:26:12.567Z,66.53
2023-05-16T07:28:39.795Z,67.39
2023-05-16T07:31:08.344Z,65.27
2023-05-16T07:33:35.854Z,63.25
2023-05-16T07:36:15.371Z,66.80
2023-05-16T07:38:44.898Z,65.91
2023-05-16T07:41:12.234Z,68.61
2023-05-16T07:43:39.473Z,67.04
2023-05-16T07:46:07.297Z,66.95
2023-05-16T07:48:34.548Z,66.08
2023-05-16T07:51:01.764Z,68.87
2023-05-16T07:53:29.238Z,66.58
2023-05-16T07:55:56.676Z,70.98
2023-05-16T07:58:25.283Z,67.92
2023-05-16T08:00:52.810Z,69.23
2023-05-16T08:03:20.822Z,70.48
2023-05-16T08:05:49.114Z,71.12
2023-05-16T08:08:16.548Z,70.95
2023-05-16T08:10:44.017Z,73.13
2023-05-16T08:13:11.210Z,74.47
2023-05-16T08:15:38.456Z,74.27
2023-05-16T08:18:07.440Z,67.49
2023-05-16T08:20:34.681Z,67.49
2023-05-16T08:23:01.988Z,70.26
2023-05-16T08:25:29.772Z,71.35
2023-05-16T08:27:57.762Z,71.91
2023-05-16T08:30:25.959Z,74.19
2023-05-16T08:32:53.493Z,71.41
2023-05-16T08:35:20.700Z,70.47
2023-05-16T08:37:47.952Z,69.90
2023-05-16T08:40:15.567Z,73.85
2023-05-16T08:42:44.709Z,75.58
2023-05-16T08:45:12.630Z,75.37
2023-05-16T08:47:41.515Z,75.28
2023-05-16T08:50:10.123Z,74.36
2023-05-16T08:52:38.476Z,76.86
2023-05-16T08:55:11.331Z,74.43
2023-05-16T08:57:39.077Z,77.70
2023-05-16T09:00:11.894Z,79.61
2023-05-16T09:02:40.162Z,76.71
2023-05-16T09:05:09.154Z,73.37
2023-05-16T09:07:36.361Z,75.36
2023-05-16T09:10:04.098Z,79.58
2023-05-16T09:12:31.585Z,79.71
2023-05-16T09:14:58.807Z,78.93
2023-05-16T09:17:36.269Z,78.23
2023-05-16T09:20:10.348Z,77.22
2023-05-16T09:22:37.902Z,75.11
2023-05-16T09:25:06.980Z,77.68
2023-05-16T09:27:36.342Z,77.02
2023-05-16T09:30:03.673Z,76.68
2023-05-16T09:32:31.432Z,75.60
2023-05-16T09:34:59.090Z,76.86
2023-05-16T09:37:26.370Z,77.85
2023-05-16T09:39:55.042Z,76.43
2023-05-16T09:42:23.864Z,76.17
2023-05-16T09:44:51.731Z,77.16
2023-05-16T09:47:19.462Z,74.38
2023-05-16T09:49:47.351Z,73.65
2023-05-16T09:52:15.595Z,75.06
2023-05-16T09:54:42.722Z,75.02
2023-05-16T09:57:10.556Z,71.97
2023-05-16T09:59:38.535Z,75.24
2023-05-16T10:02:06.398Z,75.56
2023-05-16T10:04:36.974Z,73.92
2023-05-16T10:07:04.671Z,75.64
2023-05-16T10:09:35.126Z,77.96
2023-05-16T10:12:04.301Z,75.81
2023-05-16T10:14:34.245Z,75.41
2023-05-16T10:17:01.549Z,78.28
2023-05-16T10:19:30.533Z,80.92
2023-05-16T10:22:01.197Z,77.26
2023-05-16T10:24:29.901Z,77.88
2023-05-16T10:26:57.052Z,76.01
2023-05-16T10:29:24.868Z,77.85
2023-05-16T10:31:52.537Z,76.80
2023-05-16T10:34:19.779Z,76.88
2023-05-16T10:36:47.005Z,78.70
2023-05-16T10:39:15.308Z,76.89
2023-05-16T10:41:42.747Z,78.04
2023-05-16T10:44:13.381Z,77.10
2023-05-16T10:46:41.136Z,76.67
2023-05-16T10:49:22.027Z,77.79
2023-05-16T10:52:02.444Z,80.59
2023-05-16T10:54:36.319Z,80.21
2023-05-16T10:57:04.582Z,79.72
2023-05-16T10:59:32.416Z,80.01
2023-05-16T11:01:59.647Z,80.22
2023-05-16T11:04:45.262Z,80.72
2023-05-16T11:07:12.443Z,84.69
2023-05-16T11:09:41.411Z,82.44
2023-05-16T11:12:09.470Z,82.52
2023-05-16T11:14:43.670Z,79.79
2023-05-16T11:17:11.634Z,81.95
2023-05-16T11:19:42.180Z,81.03
2023-05-16T11:22:09.516Z,81.40
2023-05-16T11:24:38.087Z,80.46
2023-05-16T11:27:05.597Z,81.48
2023-05-16T11:29:33.967Z,79.01
2023-05-16T11:32:02.435Z,81.49
2023-05-16T11:34:30.528Z,80.90
2023-05-16T11:36:58.220Z,83.11
2023-05-16T11:39:25.926Z,81.46
2023-05-16T11:41:56.205Z,78.49
2023-05-16T11:44:23.508Z,81.97
2023-05-16T11:46:51.101Z,80.67
2023-05-16T11:49:18.446Z,78.15
2023-05-16T11:51:45.779Z,80.60
2023-05-16T11:54:13.349Z,81.20
2023-05-16T11:56:43.639Z,79.43
2023-05-16T11:59:10.999Z,81.01
2023-05-16T12:01:39.100Z,79.26
2023-05-16T12:04:10.943Z,79.43
2023-05-16T12:06:38.559Z,77.11
2023-05-16T12:09:12.500Z,76.51
2023-05-16T12:11:40.756Z,78.05
2023-05-16T12:14:08.794Z,78.14
2023-05-16T12:16:37.237Z,77.71
2023-05-16T12:19:05.582Z,77.38
2023-05-16T12:21:32.857Z,76.76
2023-05-16T12:24:00.087Z,77.42
2023-05-16T12:26:28.355Z,79.38
2023-05-16T12:28:58.058Z,75.53
2023-05-16T12:31:31.876Z,76.13
2023-05-16T12:34:00.093Z,77.04
2023-05-16T12:36:31.711Z,74.38
2023-05-16T12:39:05.550Z,75.87
2023-05-16T12:41:33.036Z,77.73
2023-05-16T12:44:20.817Z,75.18
2023-05-16T12:46:51.880Z,72.44
2023-05-16T12:49:25.253Z,73.46
2023-05-16T12:51:53.448Z,76.13
2023-05-16T12:54:22.769Z,76.97
2023-05-16T12:56:50.320Z,75.61
2023-05-16T12:59:19.498Z,75.82
2023-05-16T13:01:46.774Z,75.74
2023-05-16T13:04:20.012Z,73.71
2023-05-16T13:06:57.777Z,77.08
2023-05-16T13:09:29.057Z,75.66
2023-05-16T13:11:57.783Z,78.54
2023-05-16T13:14:25.001Z,76.71
2023-05-16T13:16:52.302Z,78.43
2023-05-16T13:19:20.033Z,80.18
2023-05-16T13:21:47.451Z,80.68
2023-05-16T13:24:14.631Z,80.47
2023-05-16T13:26:42.189Z,76.86
2023-05-16T13:29:11.359Z,75.94
2023-05-16T13:31:38.636Z,79.62
2023-05-16T13:34:06.928Z,82.33
2023-05-16T13:36:49.296Z,78.75
2023-05-16T13:39:22.119Z,80.35
2023-05-16T13:41:49.529Z,80.52
2023-05-16T13:44:17.035Z,77.07
2023-05-16T13:46:44.912Z,77.02
2023-05-16T13:49:12.155Z,78.44
2023-05-16T13:51:39.345Z,78.54
2023-05-16T13:54:06.832Z,76.29
2023-05-16T13:56:34.022Z,78.23
2023-05-16T13:59:06.384Z,78.54
2023-05-16T14:01:36.023Z,73.82
2023-05-16T14:04:03.656Z,75.21
2023-05-16T14:06:33.486Z,76.74
2023-05-16T14:09:00.877Z,70.57
2023-05-16T14:11:29.364Z,73.09
2023-05-16T14:13:57.408Z,73.20
2023-05-16T14:16:25.934Z,78.83
2023-05-16T14:18:53.488Z,78.33
2023-05-16T14:21:20.785Z,77.04
2023-05-16T14:23:49.744Z,69.96
2023-05-16T14:26:18.445Z,69.11
2023-05-16T14:28:45.692Z,69.83
2023-05-16T14:31:13.025Z,72.50
2023-05-16T14:33:41.179Z,68.06
2023-05-16T14:36:08.696Z,70.96
2023-05-16T14:38:36.244Z,74.70
2023-05-16T14:41:06.022Z,72.27
2023-05-16T14:43:33.209Z,70.87
2023-05-16T14:46:00.811Z,69.63
2023-05-16T14:48:28.975Z,68.79
2023-05-16T14:50:56.210Z,67.19
2023-05-16T14:53:23.639Z,67.46
2023-05-16T14:55:51.198Z,65.93
2023-05-16T14:58:18.577Z,68.25
2023-05-16T15:00:45.871Z,68.48
2023-05-16T15:03:15.715Z,68.20
2023-05-16T15:05:43.241Z,68.35
2023-05-16T15:08:10.452Z,68.92
2023-05-16T15:10:37.968Z,65.76
2023-05-16T15:13:05.202Z,65.65
2023-05-16T15:15:33.267Z,66.01
2023-05-16T15:18:01.550Z,65.61
2023-05-16T15:20:29.208Z,66.18
2023-05-16T15:22:56.981Z,66.38
2023-05-16T15:25:24.500Z,68.15
2023-05-16T15:27:51.754Z,67.64
2023-05-16T15:30:18.951Z,70.83
2023-05-16T15:32:46.628Z,69.95
2023-05-16T15:35:14.010Z,74.81
2023-05-16T15:37:41.288Z,73.99
2023-05-16T15:40:09.245Z,73.94
2023-05-16T15:42:36.572Z,76.37
2023-05-16T15:45:03.923Z,74.99
2023-05-16T15:47:31.631Z,70.95
2023-05-16T15:49:58.864Z,70.93
2023-05-16T15:52:26.473Z,73.18
2023-05-16T15:54:55.216Z,73.57
2023-05-16T15:57:22.554Z,73.12
2023-05-16T15:59:49.787Z,71.97
2023-05-16T16:02:17.312Z,73.15
2023-05-16T16:04:45.152Z,74.50
2023-05-16T16:07:12.534Z,74.85
2023-05-16T16:09:39.774Z,72.52
2023-05-16T16:12:07.530Z,73.85
2023-05-16T16:14:34.822Z,72.78
2023-05-16T16:17:02.093Z,73.09
2023-05-16T16:19:29.603Z,74.68
2023-05-16T16:21:56.813Z,71.30
2023-05-16T16:24:24.000Z,74.42
2023-05-16T16:26:51.552Z,75.14
2023-05-16T16:29:18.749Z,75.08
2023-05-16T16:31:46.068Z,74.00
2023-05-16T16:34:13.570Z,74.31
2023-05-16T16:36:41.022Z,76.35
2023-05-16T16:39:08.311Z,78.49
2023-05-16T16:41:35.921Z,79.42
2023-05-16T16:44:03.118Z,78.31
2023-05-16T16:46:30.436Z,77.62
2023-05-16T16:48:57.948Z,77.33
2023-05-16T16:51:25.274Z,79.29
2023-05-16T16:53:52.486Z,77.79
2023-05-16T16:56:19.965Z,76.20
2023-05-16T16:58:47.255Z,78.92
2023-05-16T17:01:14.591Z,78.79
2023-05-16T17:03:42.218Z,80.77
2023-05-16T17:06:09.459Z,79.27
2023-05-16T17:08:36.697Z,78.01
2023-05-16T17:11:05.444Z,80.11
2023-05-16T17:13:34.004Z,77.72
2023-05-16T17:16:01.927Z,80.64
2023-05-16T17:18:29.995Z,77.04
2023-05-16T17:20:57.884Z,79.12
2023-05-16T17:23:25.211Z,76.48
2023-05-16T17:25:52.990Z,76.25
2023-05-16T17:28:20.167Z,77.69
2023-05-16T17:30:47.411Z,75.47
2023-05-16T17:33:14.941Z,72.66
2023-05-16T17:35:42.517Z,76.86
2023-05-16T17:38:10.399Z,74.07
2023-05-16T17:40:38.030Z,73.90
2023-05-16T17:43:05.698Z,72.88
2023-05-16T17:45:32.980Z,75.78
2023-05-16T17:48:00.657Z,73.92
2023-05-16T17:50:29.172Z,78.90
2023-05-16T17:52:56.426Z,80.18
2023-05-16T17:55:25.219Z,77.49
2023-05-16T17:57:53.117Z,78.01
2023-05-16T18:00:22.661Z,76.81
2023-05-16T18:02:50.946Z,73.83
2023-05-16T18:05:18.299Z,75.46
2023-05-16T18:07:46.136Z,78.31
2023-05-16T18:10:14.063Z,79.35
2023-05-16T18:12:42.633Z,77.77
2023-05-16T18:15:10.810Z,78.18
2023-05-16T18:17:38.372Z,76.40
2023-05-16T18:20:10.654Z,80.53
2023-05-16T18:22:38.637Z,77.79
2023-05-16T18:25:06.541Z,77.86
2023-05-16T18:27:34.229Z,79.57
2023-05-16T18:30:03.664Z,83.14
2023-05-16T18:32:31.581Z,79.48
2023-05-16T18:34:58.848Z,80.72
2023-05-16T18:37:26.778Z,79.12
2023-05-16T18:39:54.352Z,78.11
2023-05-16T18:42:21.612Z,75.78
2023-05-16T18:44:50.748Z,76.65
2023-05-16T18:47:19.379Z,76.26
2023-05-16T18:49:47.241Z,75.57
2023-05-16T18:52:14.878Z,73.19
2023-05-16T18:54:42.885Z,74.83
2023-05-16T18:57:13.977Z,77.87
2023-05-16T18:59:42.081Z,75.45
2023-05-16T19:02:10.189Z,75.60
2023-05-16T19:04:37.748Z,73.79
2023-05-16T19:07:07.851Z,77.63
2023-05-16T19:09:36.797Z,76.60
2023-05-16T19:12:04.677Z,73.53
2023-05-16T19:14:32.483Z,77.76
2023-05-16T19:17:00.073Z,74.34
2023-05-16T19:19:27.824Z,75.97
2023-05-16T19:21:55.627Z,75.89
2023-05-16T19:24:23.558Z,74.78
2023-05-16T19:26:51.322Z,72.91
2023-05-16T19:29:21.551Z,69.70
2023-05-16T19:32:00.595Z,73.54
2023-05-16T19:34:28.457Z,73.62
2023-05-16T19:36:56.040Z,73.82
2023-05-16T19:39:23.306Z,76.93
2023-05-16T19:41:52.145Z,78.10
2023-05-16T19:44:19.698Z,76.94
2023-05-16T19:46:46.980Z,78.94
2023-05-16T19:49:16.646Z,80.58
2023-05-16T19:51:45.454Z,80.71
2023-05-16T19:54:12.685Z,77.73
2023-05-16T19:56:40.312Z,77.86
2023-05-16T19:59:07.660Z,76.26
2023-05-16T20:01:34.940Z,79.59
2023-05-16T20:04:02.670Z,82.31
2023-05-16T20:06:30.100Z,81.93
2023-05-16T20:08:57.385Z,79.56
2023-05-16T20:11:24.878Z,76.34
2023-05-16T20:13:52.046Z,73.82
2023-05-16T20:16:20.708Z,74.51
2023-05-16T20:18:48.317Z,74.16
2023-05-16T20:21:15.684Z,75.68
2023-05-16T20:23:42.971Z,74.14
2023-05-16T20:26:14.735Z,72.36
2023-05-16T20:28:42.103Z,69.92
2023-05-16T20:31:09.385Z,70.49
2023-05-16T20:33:37.120Z,75.08
2023-05-16T20:36:04.612Z,74.29
2023-05-16T20:38:31.866Z,73.77
2023-05-16T20:40:59.594Z,73.91
2023-05-16T20:43:27.011Z,72.63
2023-05-16T20:45:54.220Z,73.00
2023-05-16T20:48:21.729Z,72.86
2023-05-16T20:50:49.384Z,73.48
2023-05-16T20:53:19.575Z,72.21
2023-05-16T20:55:48.129Z,70.46
2023-05-16T20:58:18.653Z,69.09
2023-05-16T21:00:45.886Z,68.38
2023-05-16T21:03:13.861Z,69.29
2023-05-16T21:05:41.338Z,74.09
2023-05-16T21:08:08.775Z,72.29
2023-05-16T21:10:36.287Z,71.27
2023-05-16T21:13:03.858Z,72.09
2023-05-16T21:15:31.234Z,71.45
2023-05-16T21:18:00.200Z,71.98
2023-05-16T21:20:30.107Z,69.48
2023-05-16T21:22:57.360Z,67.65
2023-05-16T21:25:26.722Z,69.41
2023-05-16T21:27:54.162Z,67.64
2023-05-16T21:30:21.400Z,68.48
2023-05-16T21:32:48.912Z,70.85
2023-05-16T21:35:16.157Z,71.14
2023-05-16T21:37:43.318Z,69.40
2023-05-16T21:40:14.689Z,71.38
2023-05-16T21:42:42.372Z,69.47
2023-05-16T21:45:12.617Z,71.33
2023-05-16T21:47:40.176Z,69.09
2023-05-16T21:50:07.808Z,67.46
2023-05-16T21:52:35.013Z,67.24
2023-05-16T21:55:02.951Z,66.25
2023-05-16T21:57:30.173Z,66.65
2023-05-16T21:59:57.366Z,67.76
2023-05-16T22:02:24.979Z,65.77
2023-05-16T22:04:52.967Z,69.36
2023-05-16T22:07:20.336Z,69.71
2023-05-16T22:09:53.592Z,70.38
2023-05-16T22:12:21.209Z,69.81
2023-05-16T22:14:49.222Z,70.85
2023-05-16T22:17:17.555Z,68.60
2023-05-16T22:19:46.896Z,69.13
2023-05-16T22:22:14.162Z,68.38
2023-05-16T22:24:41.350Z,66.74
2023-05-16T22:27:08.815Z,65.15
2023-05-16T22:29:38.388Z,65.69
2023-05-16T22:32:06.590Z,64.79
2023-05-16T22:34:34.422Z,65.07
2023-05-16T22:37:01.645Z,67.62
2023-05-16T22:39:28.897Z,64.74
2023-05-16T22:41:56.355Z,71.89
2023-05-16T22:44:23.547Z,69.60
2023-05-16T22:46:50.775Z,67.95
2023-05-16T22:49:19.058Z,67.05
2023-05-16T22:51:49.052Z,66.92
2023-05-16T22:54:16.534Z,69.38
2023-05-16T22:56:44.094Z,70.49
2023-05-16T22:59:11.313Z,67.87
2023-05-16T23:01:38.588Z,66.92
2023-05-16T23:04:06.216Z,66.46
2023-05-16T23:06:33.514Z,65.91
2023-05-16T23:09:00.747Z,66.78
2023-05-16T23:11:28.268Z,66.88
2023-05-16T23:13:55.753Z,67.18
2023-05-16T23:16:22.973Z,68.97
2023-05-16T23:18:50.660Z,70.92
2023-05-16T23:21:18.096Z,71.34
2023-05-16T23:23:45.310Z,69.64
2023-05-16T23:26:12.840Z,68.27
2023-05-16T23:28:40.036Z,69.81
2023-05-16T23:31:07.417Z,66.52
2023-05-16T23:33:34.953Z,68.29
2023-05-16T23:36:02.152Z,69.32
2023-05-16T23:38:32.246Z,65.93
2023-05-16T23:40:59.787Z,65.66
2023-05-16T23:43:27.094Z,64.39
2023-05-16T23:45:54.262Z,63.28
2023-05-16T23:48:21.830Z,66.73
2023-05-16T23:50:49.159Z,66.27
2023-05-16T23:53:16.723Z,64.73
2023-05-16T23:55:44.228Z,64.71
2023-05-16T23:58:11.447Z,63.16
